sensor_id;sensor_type;location;lat;lon;timestamp;temperature;humidity
21944;DHT22;11136;48.778;9.126;2023-07-31T00:00:06;17.80;99.90
21944;DHT22;11136;48.778;9.126;2023-07-31T00:02:31;17.80;99.90
21944;DHT22;11136;48.778;9.126;2023-07-31T00:04:57;17.70;99.90
21944;DHT22;11136;48.778;9.126;2023-07-31T00:07:23;17.70;99.90
21944;DHT22;11136;48.778;9.126;2023-07-31T00:09:48;17.70;99.90
21944;DHT22;11136;48.778;9.126;2023-07-31T00:12:14;17.70;99.90
21944;DHT22;11136;48.778;9.126;2023-07-31T00:14:39;17.80;99.90
21944;DHT22;11136;48.778;9.126;2023-07-31T00:17:05;17.70;99.90
21944;DHT22;11136;48.778;9.126;2023-07-31T00:19:31;17.60;99.90
21944;DHT22;11136;48.778;9.126;2023-07-31T00:21:56;17.60;99.90
21944;DHT22;11136;48.778;9.126;2023-07-31T00:24:22;17.60;99.90
21944;DHT22;11136;48.778;9.126;2023-07-31T00:26:47;17.50;99.90
21944;DHT22;11136;48.778;9.126;2023-07-31T00:29:13;17.50;99.90
21944;DHT22;11136;48.778;9.126;2023-07-31T00:31:38;17.50;99.90
21944;DHT22;11136;48.778;9.126;2023-07-31T00:34:04;17.50;99.90
21944;DHT22;11136;48.778;9.126;2023-07-31T00:36:29;17.40;99.90
21944;DHT22;11136;48.778;9.126;2023-07-31T00:38:55;17.40;99.90
21944;DHT22;11136;48.778;9.126;2023-07-31T00:41:21;17.40;99.90
21944;DHT22;11136;48.778;9.126;2023-07-31T00:43:46;17.40;99.90
21944;DHT22;11136;48.778;9.126;2023-07-31T00:46:12;17.40;99.90
21944;DHT22;11136;48.778;9.126;2023-07-31T00:48:38;17.40;99.90
21944;DHT22;11136;48.778;9.126;2023-07-31T00:51:04;17.40;99.90
21944;DHT22;11136;48.778;9.126;2023-07-31T00:53:30;17.40;99.90
21944;DHT22;11136;48.778;9.126;2023-07-31T00:55:56;17.30;99.90
21944;DHT22;11136;48.778;9.126;2023-07-31T00:58:21;17.40;99.90
21944;DHT22;11136;48.778;9.126;2023-07-31T01:00:47;17.30;99.90
21944;DHT22;11136;48.778;9.126;2023-07-31T01:03:13;17.30;99.90
21944;DHT22;11136;48.778;9.126;2023-07-31T01:05:56;17.30;99.90
21944;DHT22;11136;48.778;9.126;2023-07-31T01:08:54;17.30;99.90
21944;DHT22;11136;48.778;9.126;2023-07-31T01:11:33;17.30;99.90
21944;DHT22;11136;48.778;9.126;2023-07-31T01:14:00;17.20;99.90
21944;DHT22;11136;48.778;9.126;2023-07-31T01:16:26;17.20;99.90
21944;DHT22;11136;48.778;9.126;2023-07-31T01:18:52;17.20;99.90
21944;DHT22;11136;48.778;9.126;2023-07-31T01:24:19;17.10;99.90
21944;DHT22;11136;48.778;9.126;2023-07-31T01:26:53;17.20;99.90
21944;DHT22;11136;48.778;9.126;2023-07-31T01:29:32;17.20;99.90
21944;DHT22;11136;48.778;9.126;2023-07-31T01:32:02;17.10;99.90
21944;DHT22;11136;48.778;9.126;2023-07-31T01:34:29;17.10;99.90
21944;DHT22;11136;48.778;9.126;2023-07-31T01:36:56;17.10;99.90
21944;DHT22;11136;48.778;9.126;2023-07-31T01:39:22;17.10;99.90
21944;DHT22;11136;48.778;9.126;2023-07-31T01:41:48;17.00;99.90
21944;DHT22;11136;48.778;9.126;2023-07-31T01:44:13;17.00;99.90
21944;DHT22;11136;48.778;9.126;2023-07-31T01:46:39;17.00;99.90
21944;DHT22;11136;48.778;9.126;2023-07-31T01:49:06;16.90;99.90
21944;DHT22;11136;48.778;9.126;2023-07-31T01:51:31;16.90;99.90
21944;DHT22;11136;48.778;9.126;2023-07-31T01:54:00;16.90;99.90
21944;DHT22;11136;48.778;9.126;2023-07-31T01:56:26;16.90;99.90
21944;DHT22;11136;48.778;9.126;2023-07-31T01:58:52;16.90;99.90
21944;DHT22;11136;48.778;9.126;2023-07-31T02:01:17;16.90;99.90
21944;DHT22;11136;48.778;9.126;2023-07-31T02:03:43;16.90;99.90
21944;DHT22;11136;48.778;9.126;2023-07-31T02:06:08;16.90;99.90
21944;DHT22;11136;48.778;9.126;2023-07-31T02:08:34;16.90;99.90
21944;DHT22;11136;48.778;9.126;2023-07-31T02:10:59;16.90;99.90
21944;DHT22;11136;48.778;9.126;2023-07-31T02:13:25;16.90;99.90
21944;DHT22;11136;48.778;9.126;2023-07-31T02:15:50;16.80;99.90
21944;DHT22;11136;48.778;9.126;2023-07-31T02:18:16;16.80;99.90
21944;DHT22;11136;48.778;9.126;2023-07-31T02:20:42;16.90;99.90
21944;DHT22;11136;48.778;9.126;2023-07-31T02:23:08;16.80;99.90
21944;DHT22;11136;48.778;9.126;2023-07-31T02:25:34;16.80;99.90
21944;DHT22;11136;48.778;9.126;2023-07-31T02:27:59;16.80;99.90
21944;DHT22;11136;48.778;9.126;2023-07-31T02:30:25;16.80;99.90
21944;DHT22;11136;48.778;9.126;2023-07-31T02:32:51;16.80;99.90
21944;DHT22;11136;48.778;9.126;2023-07-31T02:35:16;16.70;99.90
21944;DHT22;11136;48.778;9.126;2023-07-31T02:37:43;16.70;99.90
21944;DHT22;11136;48.778;9.126;2023-07-31T02:40:10;16.70;99.90
21944;DHT22;11136;48.778;9.126;2023-07-31T02:42:35;16.70;99.90
21944;DHT22;11136;48.778;9.126;2023-07-31T02:45:01;16.60;99.90
21944;DHT22;11136;48.778;9.126;2023-07-31T02:47:26;16.60;99.90
21944;DHT22;11136;48.778;9.126;2023-07-31T02:49:52;16.60;99.90
21944;DHT22;11136;48.778;9.126;2023-07-31T02:52:17;16.60;99.90
21944;DHT22;11136;48.778;9.126;2023-07-31T02:54:43;16.60;99.90
21944;DHT22;11136;48.778;9.126;2023-07-31T02:57:09;16.60;99.90
21944;DHT22;11136;48.778;9.126;2023-07-31T02:59:34;16.60;99.90
21944;DHT22;11136;48.778;9.126;2023-07-31T03:02:00;16.60;99.90
21944;DHT22;11136;48.778;9.126;2023-07-31T03:04:25;16.60;99.90
21944;DHT22;11136;48.778;9.126;2023-07-31T03:06:51;16.60;99.90
21944;DHT22;11136;48.778;9.126;2023-07-31T03:09:16;16.50;99.90
21944;DHT22;11136;48.778;9.126;2023-07-31T03:11:42;16.60;99.90
21944;DHT22;11136;48.778;9.126;2023-07-31T03:14:07;16.60;99.90
21944;DHT22;11136;48.778;9.126;2023-07-31T03:16:33;16.50;99.90
21944;DHT22;11136;48.778;9.126;2023-07-31T03:18:58;16.50;99.90
21944;DHT22;11136;48.778;9.126;2023-07-31T03:21:24;16.50;99.90
21944;DHT22;11136;48.778;9.126;2023-07-31T03:23:49;16.50;99.90
21944;DHT22;11136;48.778;9.126;2023-07-31T03:26:15;16.50;99.90
21944;DHT22;11136;48.778;9.126;2023-07-31T03:28:41;16.50;99.90
21944;DHT22;11136;48.778;9.126;2023-07-31T03:31:06;16.50;99.90
21944;DHT22;11136;48.778;9.126;2023-07-31T03:33:33;16.50;99.90
21944;DHT22;11136;48.778;9.126;2023-07-31T03:35:59;16.50;99.90
21944;DHT22;11136;48.778;9.126;2023-07-31T03:38:25;16.50;99.90
21944;DHT22;11136;48.778;9.126;2023-07-31T03:40:50;16.50;99.90
21944;DHT22;11136;48.778;9.126;2023-07-31T03:43:16;16.50;99.90
21944;DHT22;11136;48.778;9.126;2023-07-31T03:45:41;16.50;99.90
21944;DHT22;11136;48.778;9.126;2023-07-31T03:48:08;16.50;99.90
21944;DHT22;11136;48.778;9.126;2023-07-31T03:50:34;16.50;99.90
21944;DHT22;11136;48.778;9.126;2023-07-31T03:52:59;16.50;99.90
21944;DHT22;11136;48.778;9.126;2023-07-31T03:55:25;16.50;99.90
21944;DHT22;11136;48.778;9.126;2023-07-31T03:57:50;16.50;99.90
21944;DHT22;11136;48.778;9.126;2023-07-31T04:00:16;16.50;99.90
21944;DHT22;11136;48.778;9.126;2023-07-31T04:02:41;16.50;99.90
21944;DHT22;11136;48.778;9.126;2023-07-31T04:05:07;16.50;99.90
21944;DHT22;11136;48.778;9.126;2023-07-31T04:07:33;16.50;99.90
21944;DHT22;11136;48.778;9.126;2023-07-31T04:10:00;16.50;99.90
21944;DHT22;11136;48.778;9.126;2023-07-31T04:12:26;16.50;99.90
21944;DHT22;11136;48.778;9.126;2023-07-31T04:14:51;16.50;99.90
21944;DHT22;11136;48.778;9.126;2023-07-31T04:17:20;16.50;99.90
21944;DHT22;11136;48.778;9.126;2023-07-31T04:19:45;16.50;99.90
21944;DHT22;11136;48.778;9.126;2023-07-31T04:22:11;16.60;99.90
21944;DHT22;11136;48.778;9.126;2023-07-31T04:24:36;16.60;99.90
21944;DHT22;11136;48.778;9.126;2023-07-31T04:27:02;16.60;99.90
21944;DHT22;11136;48.778;9.126;2023-07-31T04:29:28;16.60;99.90
21944;DHT22;11136;48.778;9.126;2023-07-31T04:31:53;16.60;99.90
21944;DHT22;11136;48.778;9.126;2023-07-31T04:34:19;16.60;99.90
21944;DHT22;11136;48.778;9.126;2023-07-31T04:36:44;16.60;99.90
21944;DHT22;11136;48.778;9.126;2023-07-31T04:39:10;16.70;99.90
21944;DHT22;11136;48.778;9.126;2023-07-31T04:41:35;16.70;99.90
21944;DHT22;11136;48.778;9.126;2023-07-31T04:44:01;16.70;99.90
21944;DHT22;11136;48.778;9.126;2023-07-31T04:46:29;17.00;99.90
21944;DHT22;11136;48.778;9.126;2023-07-31T04:48:54;16.70;99.90
21944;DHT22;11136;48.778;9.126;2023-07-31T04:51:20;16.70;99.90
21944;DHT22;11136;48.778;9.126;2023-07-31T04:53:46;16.70;99.90
21944;DHT22;11136;48.778;9.126;2023-07-31T04:56:12;16.80;99.90
21944;DHT22;11136;48.778;9.126;2023-07-31T04:58:37;16.80;99.90
21944;DHT22;11136;48.778;9.126;2023-07-31T05:01:03;16.80;99.90
21944;DHT22;11136;48.778;9.126;2023-07-31T05:03:28;16.80;99.90
21944;DHT22;11136;48.778;9.126;2023-07-31T05:05:54;16.80;99.90
21944;DHT22;11136;48.778;9.126;2023-07-31T05:08:19;16.80;99.90
21944;DHT22;11136;48.778;9.126;2023-07-31T05:10:45;16.80;99.90
21944;DHT22;11136;48.778;9.126;2023-07-31T05:13:11;16.90;99.90
21944;DHT22;11136;48.778;9.126;2023-07-31T05:15:36;16.90;99.90
21944;DHT22;11136;48.778;9.126;2023-07-31T05:18:02;16.90;99.90
21944;DHT22;11136;48.778;9.126;2023-07-31T05:20:27;16.90;99.90
21944;DHT22;11136;48.778;9.126;2023-07-31T05:22:53;16.90;99.90
21944;DHT22;11136;48.778;9.126;2023-07-31T05:25:19;17.00;99.90
21944;DHT22;11136;48.778;9.126;2023-07-31T05:27:44;16.90;99.90
21944;DHT22;11136;48.778;9.126;2023-07-31T05:30:10;17.00;99.90
21944;DHT22;11136;48.778;9.126;2023-07-31T05:32:35;17.00;99.90
21944;DHT22;11136;48.778;9.126;2023-07-31T05:35:01;17.00;99.90
21944;DHT22;11136;48.778;9.126;2023-07-31T05:37:27;17.00;99.90
21944;DHT22;11136;48.778;9.126;2023-07-31T05:39:52;17.00;99.90
21944;DHT22;11136;48.778;9.126;2023-07-31T05:42:18;17.00;99.90
21944;DHT22;11136;48.778;9.126;2023-07-31T05:44:44;17.10;99.90
21944;DHT22;11136;48.778;9.126;2023-07-31T05:47:09;17.10;99.90
21944;DHT22;11136;48.778;9.126;2023-07-31T05:49:35;17.10;99.90
21944;DHT22;11136;48.778;9.126;2023-07-31T05:52:00;17.20;99.90
21944;DHT22;11136;48.778;9.126;2023-07-31T05:54:26;17.20;99.90
21944;DHT22;11136;48.778;9.126;2023-07-31T05:56:52;17.20;99.90
21944;DHT22;11136;48.778;9.126;2023-07-31T05:59:17;17.30;99.90
21944;DHT22;11136;48.778;9.126;2023-07-31T06:01:43;17.30;99.90
21944;DHT22;11136;48.778;9.126;2023-07-31T06:04:08;17.30;99.90
21944;DHT22;11136;48.778;9.126;2023-07-31T06:06:34;17.40;99.90
21944;DHT22;11136;48.778;9.126;2023-07-31T06:09:00;17.40;99.90
21944;DHT22;11136;48.778;9.126;2023-07-31T06:11:26;17.50;99.90
21944;DHT22;11136;48.778;9.126;2023-07-31T06:13:51;17.50;99.90
21944;DHT22;11136;48.778;9.126;2023-07-31T06:16:17;17.50;99.90
21944;DHT22;11136;48.778;9.126;2023-07-31T06:18:43;17.50;99.90
21944;DHT22;11136;48.778;9.126;2023-07-31T06:21:09;17.60;99.90
21944;DHT22;11136;48.778;9.126;2023-07-31T06:23:35;17.60;99.90
21944;DHT22;11136;48.778;9.126;2023-07-31T06:26:01;17.70;99.90
21944;DHT22;11136;48.778;9.126;2023-07-31T06:28:28;17.70;99.90
21944;DHT22;11136;48.778;9.126;2023-07-31T06:30:55;17.70;99.90
21944;DHT22;11136;48.778;9.126;2023-07-31T06:33:20;17.80;99.90
21944;DHT22;11136;48.778;9.126;2023-07-31T06:35:46;17.80;99.90
21944;DHT22;11136;48.778;9.126;2023-07-31T06:38:11;17.90;99.90
21944;DHT22;11136;48.778;9.126;2023-07-31T06:40:37;17.90;99.90
21944;DHT22;11136;48.778;9.126;2023-07-31T06:43:02;17.90;99.90
21944;DHT22;11136;48.778;9.126;2023-07-31T06:45:37;18.00;99.90
21944;DHT22;11136;48.778;9.126;2023-07-31T06:48:03;18.00;99.90
21944;DHT22;11136;48.778;9.126;2023-07-31T06:50:30;18.10;99.90
21944;DHT22;11136;48.778;9.126;2023-07-31T06:52:56;18.10;99.90
21944;DHT22;11136;48.778;9.126;2023-07-31T06:55:22;18.10;99.90
21944;DHT22;11136;48.778;9.126;2023-07-31T06:57:49;18.20;99.90
21944;DHT22;11136;48.778;9.126;2023-07-31T07:00:15;18.20;99.90
21944;DHT22;11136;48.778;9.126;2023-07-31T07:02:41;18.30;99.90
21944;DHT22;11136;48.778;9.126;2023-07-31T07:05:07;18.30;99.90
21944;DHT22;11136;48.778;9.126;2023-07-31T07:07:32;18.30;99.90
21944;DHT22;11136;48.778;9.126;2023-07-31T07:09:58;18.30;99.90
21944;DHT22;11136;48.778;9.126;2023-07-31T07:12:26;18.30;99.90
21944;DHT22;11136;48.778;9.126;2023-07-31T07:14:51;18.40;99.90
21944;DHT22;11136;48.778;9.126;2023-07-31T07:17:18;18.40;99.90
21944;DHT22;11136;48.778;9.126;2023-07-31T07:19:44;18.40;99.90
21944;DHT22;11136;48.778;9.126;2023-07-31T07:22:11;18.50;99.90
21944;DHT22;11136;48.778;9.126;2023-07-31T07:24:37;18.50;99.90
21944;DHT22;11136;48.778;9.126;2023-07-31T07:27:03;18.50;99.90
21944;DHT22;11136;48.778;9.126;2023-07-31T07:29:28;18.60;99.90
21944;DHT22;11136;48.778;9.126;2023-07-31T07:31:54;18.60;99.90
21944;DHT22;11136;48.778;9.126;2023-07-31T07:34:19;18.70;99.90
21944;DHT22;11136;48.778;9.126;2023-07-31T07:36:48;18.70;99.90
21944;DHT22;11136;48.778;9.126;2023-07-31T07:39:14;18.70;99.90
21944;DHT22;11136;48.778;9.126;2023-07-31T07:41:39;18.70;99.90
21944;DHT22;11136;48.778;9.126;2023-07-31T07:44:05;18.80;99.90
21944;DHT22;11136;48.778;9.126;2023-07-31T07:46:30;18.80;99.90
21944;DHT22;11136;48.778;9.126;2023-07-31T07:48:56;18.90;99.90
21944;DHT22;11136;48.778;9.126;2023-07-31T07:51:21;18.90;99.90
21944;DHT22;11136;48.778;9.126;2023-07-31T07:53:47;18.90;99.90
21944;DHT22;11136;48.778;9.126;2023-07-31T07:56:13;19.00;99.90
21944;DHT22;11136;48.778;9.126;2023-07-31T07:58:38;19.00;99.90
21944;DHT22;11136;48.778;9.126;2023-07-31T08:01:04;19.00;99.80
21944;DHT22;11136;48.778;9.126;2023-07-31T08:03:29;19.10;99.80
21944;DHT22;11136;48.778;9.126;2023-07-31T08:05:59;19.10;99.80
21944;DHT22;11136;48.778;9.126;2023-07-31T08:08:24;19.10;99.90
21944;DHT22;11136;48.778;9.126;2023-07-31T08:10:51;19.20;99.60
21944;DHT22;11136;48.778;9.126;2023-07-31T08:13:17;19.30;99.70
21944;DHT22;11136;48.778;9.126;2023-07-31T08:15:42;19.20;99.70
21944;DHT22;11136;48.778;9.126;2023-07-31T08:18:08;19.30;99.70
21944;DHT22;11136;48.778;9.126;2023-07-31T08:20:34;19.30;99.50
21944;DHT22;11136;48.778;9.126;2023-07-31T08:23:00;19.30;99.60
21944;DHT22;11136;48.778;9.126;2023-07-31T08:25:25;19.40;99.90
21944;DHT22;11136;48.778;9.126;2023-07-31T08:27:51;19.50;99.90
21944;DHT22;11136;48.778;9.126;2023-07-31T08:30:18;19.50;99.80
21944;DHT22;11136;48.778;9.126;2023-07-31T08:32:44;19.60;99.80
21944;DHT22;11136;48.778;9.126;2023-07-31T08:35:10;19.70;99.40
21944;DHT22;11136;48.778;9.126;2023-07-31T08:37:37;19.90;99.20
21944;DHT22;11136;48.778;9.126;2023-07-31T08:40:03;20.00;99.00
21944;DHT22;11136;48.778;9.126;2023-07-31T08:42:29;20.00;98.40
21944;DHT22;11136;48.778;9.126;2023-07-31T08:44:56;20.00;97.90
21944;DHT22;11136;48.778;9.126;2023-07-31T08:47:22;20.10;97.80
21944;DHT22;11136;48.778;9.126;2023-07-31T08:49:49;20.10;98.00
21944;DHT22;11136;48.778;9.126;2023-07-31T08:52:15;20.10;97.90
21944;DHT22;11136;48.778;9.126;2023-07-31T08:54:41;20.20;97.70
21944;DHT22;11136;48.778;9.126;2023-07-31T08:57:07;20.20;97.40
21944;DHT22;11136;48.778;9.126;2023-07-31T08:59:35;20.20;97.40
21944;DHT22;11136;48.778;9.126;2023-07-31T09:02:05;20.20;97.20
21944;DHT22;11136;48.778;9.126;2023-07-31T09:04:32;20.20;97.10
21944;DHT22;11136;48.778;9.126;2023-07-31T09:07:01;20.20;97.00
21944;DHT22;11136;48.778;9.126;2023-07-31T09:09:27;20.20;97.00
21944;DHT22;11136;48.778;9.126;2023-07-31T09:11:52;20.20;97.00
21944;DHT22;11136;48.778;9.126;2023-07-31T09:14:19;20.20;97.20
21944;DHT22;11136;48.778;9.126;2023-07-31T09:16:58;20.20;97.40
21944;DHT22;11136;48.778;9.126;2023-07-31T09:19:32;20.30;97.10
21944;DHT22;11136;48.778;9.126;2023-07-31T09:21:59;20.30;97.00
21944;DHT22;11136;48.778;9.126;2023-07-31T09:24:29;20.30;96.80
21944;DHT22;11136;48.778;9.126;2023-07-31T09:26:56;20.20;96.80
21944;DHT22;11136;48.778;9.126;2023-07-31T09:29:23;20.20;96.80
21944;DHT22;11136;48.778;9.126;2023-07-31T09:31:48;20.20;96.80
21944;DHT22;11136;48.778;9.126;2023-07-31T09:34:14;20.20;96.80
21944;DHT22;11136;48.778;9.126;2023-07-31T09:36:44;20.10;96.90
21944;DHT22;11136;48.778;9.126;2023-07-31T09:39:11;20.10;97.30
21944;DHT22;11136;48.778;9.126;2023-07-31T09:41:40;20.20;97.40
21944;DHT22;11136;48.778;9.126;2023-07-31T09:44:06;20.20;97.50
21944;DHT22;11136;48.778;9.126;2023-07-31T09:46:35;20.20;97.50
21944;DHT22;11136;48.778;9.126;2023-07-31T09:51:31;20.30;97.50
21944;DHT22;11136;48.778;9.126;2023-07-31T09:53:57;20.40;97.50
21944;DHT22;11136;48.778;9.126;2023-07-31T09:56:23;20.60;97.40
21944;DHT22;11136;48.778;9.126;2023-07-31T09:58:49;20.70;96.90
21944;DHT22;11136;48.778;9.126;2023-07-31T10:01:15;20.80;96.90
21944;DHT22;11136;48.778;9.126;2023-07-31T10:03:42;20.80;96.40
21944;DHT22;11136;48.778;9.126;2023-07-31T10:06:10;20.80;96.00
21944;DHT22;11136;48.778;9.126;2023-07-31T10:08:37;20.80;96.10
21944;DHT22;11136;48.778;9.126;2023-07-31T10:11:03;20.90;96.00
21944;DHT22;11136;48.778;9.126;2023-07-31T10:13:30;21.00;96.10
21944;DHT22;11136;48.778;9.126;2023-07-31T10:15:59;21.00;96.10
21944;DHT22;11136;48.778;9.126;2023-07-31T10:18:26;21.10;96.20
21944;DHT22;11136;48.778;9.126;2023-07-31T10:20:53;21.10;95.90
21944;DHT22;11136;48.778;9.126;2023-07-31T10:23:20;21.20;95.60
21944;DHT22;11136;48.778;9.126;2023-07-31T10:25:46;21.20;95.30
21944;DHT22;11136;48.778;9.126;2023-07-31T10:28:14;21.20;95.40
21944;DHT22;11136;48.778;9.126;2023-07-31T10:30:40;21.20;95.60
21944;DHT22;11136;48.778;9.126;2023-07-31T10:33:06;21.20;95.20
21944;DHT22;11136;48.778;9.126;2023-07-31T10:35:32;21.20;94.90
21944;DHT22;11136;48.778;9.126;2023-07-31T10:38:10;21.30;94.80
21944;DHT22;11136;48.778;9.126;2023-07-31T10:40:37;21.30;94.40
21944;DHT22;11136;48.778;9.126;2023-07-31T10:43:03;21.30;94.10
21944;DHT22;11136;48.778;9.126;2023-07-31T10:45:36;21.30;93.80
21944;DHT22;11136;48.778;9.126;2023-07-31T10:48:16;21.40;93.40
21944;DHT22;11136;48.778;9.126;2023-07-31T10:50:52;21.40;93.40
21944;DHT22;11136;48.778;9.126;2023-07-31T10:53:24;21.40;93.70
21944;DHT22;11136;48.778;9.126;2023-07-31T10:55:50;21.40;93.90
21944;DHT22;11136;48.778;9.126;2023-07-31T10:58:20;21.50;93.70
21944;DHT22;11136;48.778;9.126;2023-07-31T11:00:48;21.60;94.10
21944;DHT22;11136;48.778;9.126;2023-07-31T11:03:16;21.70;94.10
21944;DHT22;11136;48.778;9.126;2023-07-31T11:08:15;21.90;92.90
21944;DHT22;11136;48.778;9.126;2023-07-31T11:10:41;22.00;93.10
21944;DHT22;11136;48.778;9.126;2023-07-31T11:13:07;22.10;92.80
21944;DHT22;11136;48.778;9.126;2023-07-31T11:15:32;22.10;93.00
21944;DHT22;11136;48.778;9.126;2023-07-31T11:18:00;22.40;93.50
21944;DHT22;11136;48.778;9.126;2023-07-31T11:20:30;22.30;93.10
21944;DHT22;11136;48.778;9.126;2023-07-31T11:22:59;22.40;93.30
21944;DHT22;11136;48.778;9.126;2023-07-31T11:25:25;22.50;93.20
21944;DHT22;11136;48.778;9.126;2023-07-31T11:27:50;22.60;92.90
21944;DHT22;11136;48.778;9.126;2023-07-31T11:30:19;22.60;92.90
21944;DHT22;11136;48.778;9.126;2023-07-31T11:32:45;22.60;92.40
21944;DHT22;11136;48.778;9.126;2023-07-31T11:35:14;22.50;92.20
21944;DHT22;11136;48.778;9.126;2023-07-31T11:37:43;22.40;92.00
21944;DHT22;11136;48.778;9.126;2023-07-31T11:40:10;22.40;91.80
21944;DHT22;11136;48.778;9.126;2023-07-31T11:42:35;22.30;92.20
21944;DHT22;11136;48.778;9.126;2023-07-31T11:45:08;22.20;92.20
21944;DHT22;11136;48.778;9.126;2023-07-31T11:47:36;22.20;92.30
21944;DHT22;11136;48.778;9.126;2023-07-31T11:50:06;22.10;92.20
21944;DHT22;11136;48.778;9.126;2023-07-31T11:52:40;22.10;92.30
21944;DHT22;11136;48.778;9.126;2023-07-31T11:55:08;22.10;92.50
21944;DHT22;11136;48.778;9.126;2023-07-31T11:57:39;22.10;92.30
21944;DHT22;11136;48.778;9.126;2023-07-31T12:00:06;22.10;92.10
21944;DHT22;11136;48.778;9.126;2023-07-31T12:02:33;22.10;92.00
21944;DHT22;11136;48.778;9.126;2023-07-31T12:04:59;22.00;92.10
21944;DHT22;11136;48.778;9.126;2023-07-31T12:07:25;22.00;92.20
21944;DHT22;11136;48.778;9.126;2023-07-31T12:09:54;22.00;92.50
21944;DHT22;11136;48.778;9.126;2023-07-31T12:12:21;22.10;92.60
21944;DHT22;11136;48.778;9.126;2023-07-31T12:14:47;22.10;92.70
21944;DHT22;11136;48.778;9.126;2023-07-31T12:17:14;22.10;92.80
21944;DHT22;11136;48.778;9.126;2023-07-31T12:19:39;22.20;92.60
21944;DHT22;11136;48.778;9.126;2023-07-31T12:22:13;22.20;92.30
21944;DHT22;11136;48.778;9.126;2023-07-31T12:24:40;22.20;92.10
21944;DHT22;11136;48.778;9.126;2023-07-31T12:27:12;22.20;92.10
21944;DHT22;11136;48.778;9.126;2023-07-31T12:29:39;22.20;92.10
21944;DHT22;11136;48.778;9.126;2023-07-31T12:32:26;22.10;92.20
21944;DHT22;11136;48.778;9.126;2023-07-31T12:34:59;22.20;92.40
21944;DHT22;11136;48.778;9.126;2023-07-31T12:37:25;22.20;92.30
21944;DHT22;11136;48.778;9.126;2023-07-31T12:39:50;22.10;92.00
21944;DHT22;11136;48.778;9.126;2023-07-31T12:42:17;22.10;91.70
21944;DHT22;11136;48.778;9.126;2023-07-31T12:44:43;22.10;91.70
21944;DHT22;11136;48.778;9.126;2023-07-31T12:47:08;22.10;91.70
21944;DHT22;11136;48.778;9.126;2023-07-31T12:49:34;22.10;91.70
21944;DHT22;11136;48.778;9.126;2023-07-31T12:51:59;22.10;92.00
21944;DHT22;11136;48.778;9.126;2023-07-31T12:54:25;22.10;91.90
21944;DHT22;11136;48.778;9.126;2023-07-31T12:56:51;22.20;91.90
21944;DHT22;11136;48.778;9.126;2023-07-31T12:59:16;22.10;91.90
21944;DHT22;11136;48.778;9.126;2023-07-31T13:01:42;22.10;92.10
21944;DHT22;11136;48.778;9.126;2023-07-31T13:04:07;22.20;92.80
21944;DHT22;11136;48.778;9.126;2023-07-31T13:06:34;22.20;92.20
21944;DHT22;11136;48.778;9.126;2023-07-31T13:08:59;22.30;92.10
21944;DHT22;11136;48.778;9.126;2023-07-31T13:11:25;22.30;92.20
21944;DHT22;11136;48.778;9.126;2023-07-31T13:13:50;22.40;92.20
21944;DHT22;11136;48.778;9.126;2023-07-31T13:16:16;22.40;91.90
21944;DHT22;11136;48.778;9.126;2023-07-31T13:18:41;22.40;91.60
21944;DHT22;11136;48.778;9.126;2023-07-31T13:21:07;22.40;91.90
21944;DHT22;11136;48.778;9.126;2023-07-31T13:23:32;22.40;91.60
21944;DHT22;11136;48.778;9.126;2023-07-31T13:25:58;22.40;91.60
21944;DHT22;11136;48.778;9.126;2023-07-31T13:28:23;22.50;91.70
21944;DHT22;11136;48.778;9.126;2023-07-31T13:30:49;22.50;91.70
21944;DHT22;11136;48.778;9.126;2023-07-31T13:33:15;22.60;91.90
21944;DHT22;11136;48.778;9.126;2023-07-31T13:35:40;22.60;91.80
21944;DHT22;11136;48.778;9.126;2023-07-31T13:38:06;22.60;91.80
21944;DHT22;11136;48.778;9.126;2023-07-31T13:40:32;22.70;91.70
21944;DHT22;11136;48.778;9.126;2023-07-31T13:42:57;22.70;91.50
21944;DHT22;11136;48.778;9.126;2023-07-31T13:45:23;22.70;91.70
21944;DHT22;11136;48.778;9.126;2023-07-31T13:47:50;22.70;91.40
21944;DHT22;11136;48.778;9.126;2023-07-31T13:50:16;22.70;91.50
21944;DHT22;11136;48.778;9.126;2023-07-31T13:52:42;22.80;91.40
21944;DHT22;11136;48.778;9.126;2023-07-31T13:55:07;22.70;91.10
21944;DHT22;11136;48.778;9.126;2023-07-31T13:57:33;22.80;91.30
21944;DHT22;11136;48.778;9.126;2023-07-31T14:00:00;22.80;91.20
21944;DHT22;11136;48.778;9.126;2023-07-31T14:02:25;22.80;91.40
21944;DHT22;11136;48.778;9.126;2023-07-31T14:04:51;22.80;91.40
21944;DHT22;11136;48.778;9.126;2023-07-31T14:07:16;22.80;91.30
21944;DHT22;11136;48.778;9.126;2023-07-31T14:09:43;22.90;91.10
21944;DHT22;11136;48.778;9.126;2023-07-31T14:12:08;22.90;91.00
21944;DHT22;11136;48.778;9.126;2023-07-31T14:14:34;22.90;91.00
21944;DHT22;11136;48.778;9.126;2023-07-31T14:16:59;22.90;91.00
21944;DHT22;11136;48.778;9.126;2023-07-31T14:19:25;23.00;91.10
21944;DHT22;11136;48.778;9.126;2023-07-31T14:21:50;23.10;90.90
21944;DHT22;11136;48.778;9.126;2023-07-31T14:24:16;23.20;90.80
21944;DHT22;11136;48.778;9.126;2023-07-31T14:26:41;23.30;91.20
21944;DHT22;11136;48.778;9.126;2023-07-31T14:29:07;23.40;91.10
21944;DHT22;11136;48.778;9.126;2023-07-31T14:31:32;23.50;90.80
21944;DHT22;11136;48.778;9.126;2023-07-31T14:33:58;23.60;91.00
21944;DHT22;11136;48.778;9.126;2023-07-31T14:36:23;23.70;90.90
21944;DHT22;11136;48.778;9.126;2023-07-31T14:38:49;23.70;90.90
21944;DHT22;11136;48.778;9.126;2023-07-31T14:41:14;23.80;90.30
21944;DHT22;11136;48.778;9.126;2023-07-31T14:43:40;23.80;90.30
21944;DHT22;11136;48.778;9.126;2023-07-31T14:46:06;23.80;90.50
21944;DHT22;11136;48.778;9.126;2023-07-31T14:48:31;23.80;90.30
21944;DHT22;11136;48.778;9.126;2023-07-31T14:50:57;23.80;90.00
21944;DHT22;11136;48.778;9.126;2023-07-31T14:53:22;23.90;90.30
21944;DHT22;11136;48.778;9.126;2023-07-31T14:55:48;23.90;89.80
21944;DHT22;11136;48.778;9.126;2023-07-31T14:58:13;23.90;89.40
21944;DHT22;11136;48.778;9.126;2023-07-31T15:00:40;23.90;88.90
21944;DHT22;11136;48.778;9.126;2023-07-31T15:03:05;23.80;89.30
21944;DHT22;11136;48.778;9.126;2023-07-31T15:05:31;23.80;89.20
21944;DHT22;11136;48.778;9.126;2023-07-31T15:07:56;23.80;89.70
21944;DHT22;11136;48.778;9.126;2023-07-31T15:10:22;23.90;89.30
21944;DHT22;11136;48.778;9.126;2023-07-31T15:12:47;23.80;88.70
21944;DHT22;11136;48.778;9.126;2023-07-31T15:15:14;23.80;88.10
21944;DHT22;11136;48.778;9.126;2023-07-31T15:17:40;23.80;87.90
21944;DHT22;11136;48.778;9.126;2023-07-31T15:20:06;23.80;87.80
21944;DHT22;11136;48.778;9.126;2023-07-31T15:22:32;23.80;88.00
21944;DHT22;11136;48.778;9.126;2023-07-31T15:24:57;23.80;87.80
21944;DHT22;11136;48.778;9.126;2023-07-31T15:27:23;23.80;87.30
21944;DHT22;11136;48.778;9.126;2023-07-31T15:29:49;23.90;87.90
21944;DHT22;11136;48.778;9.126;2023-07-31T15:32:17;24.00;88.10